Nearby METAR Reports

 

KIAG - Niagara Falls, New York, USA
Distance from station: W 13mi, 20km
Updated: Mon, 24-Jan-2022 8:53am EST
Overcast
Overcast
 Wind from SSE
Wind: SSE 9 mph , 15 km/h
Temperature: 9°F , -13°C
Wind Chill: -4°F , -20°C
Dew Point: 3°F , -16°C
Humidity: 78%
Barometer: 29.86 inHg , 1011.2 hPa
Clouds: Overcast
Visibility: 10 miles , 16 km
Cloud details: Partly cloudy 4100 ft
Overcast 12000 ft
2022/01/24 13:53 KIAG 241353Z 16008KT 10SM SCT041 OVC120 M13/M16 A2986 RMK AO2 SLP136 T11281161 $
KBUF - Buffalo/Cheektow, New York, USA
Distance from station: S 15mi, 24km
Updated: Mon, 24-Jan-2022 8:54am EST
Mostly cloudy
Mostly cloudy
 Wind from SE
Wind: SE 10 mph , 17 km/h
Temperature: 7°F , -14°C
Wind Chill: -7°F , -22°C
Dew Point: 1°F , -17°C
Humidity: 78%
Barometer: 29.87 inHg , 1011.5 hPa
Clouds: Mostly cloudy
Visibility: 10 miles , 16 km
Cloud details: Mostly cloudy 3900 ft
Mostly cloudy 10000 ft
Mostly cloudy 15000 ft
Mostly cloudy 25000 ft
2022/01/24 13:54 KBUF 241354Z 14009KT 10SM BKN039 BKN100 BKN150 BKN250 M14/M17 A2987 RMK AO2 SLP131 T11391172 $
 
CYSN - St. Catharines A, Ontario, Canada
Distance from station: W 24mi, 39km
Updated: Mon, 24-Jan-2022 9:00am EST
Overcast
Overcast
 Wind from SSE
Wind: SSE 10 mph , 17 km/h, Gust: 20 mph , 31 km/h
Temperature: 14°F , -10°C
Wind Chill: 1°F , -17°C
Dew Point: 9°F , -13°C
Humidity: 79%
Barometer: 29.86 inHg , 1011.2 hPa
Clouds: Overcast
Visibility: 15 miles , 24 km
Cloud details: Overcast 4100 ft
2022/01/24 14:00 CYSN 241400Z 16009G17KT 15SM OVC041 M10/M13 A2986 RMK SC8 SLP119
CWWZ - Port Weller (mar, Ontario, Canada
Distance from station: WNW 28mi, 44km
Updated: Mon, 24-Jan-2022 9:00am EST

 Wind from SSE
Wind: SSE 10 mph , 17 km/h
Temperature: 16°F , -9°C
Wind Chill: 4°F , -16°C
Dew Point: 10°F , -12°C
Humidity: 79%
2022/01/24 14:00 CWWZ 241400Z AUTO 15009KT M09/M12 RMK AO1 SOG 18 7015 SLP125 T10861118
 
CWPC - Port Colborne(Au, Ontario, Canada
Distance from station: SW 35mi, 56km
Updated: Mon, 24-Jan-2022 9:00am EST

 Wind from SSE
Wind: SSE 22 mph , 35 km/h
Temperature: 16°F , -9°C
Wind Chill: -2°F , -19°C
Dew Point: 9°F , -13°C
Humidity: 73%
2022/01/24 14:00 CWPC 241400Z AUTO 16019KT M09/M13 RMK AO1 PK WND 15022/1350 SLP122 T10861128 58018
CXVN - Vineland (au8), Ontario, Canada
Distance from station: W 36mi, 58km
Updated: Mon, 24-Jan-2022 9:00am EST

 Wind from SSE
Wind: SSE 7 mph , 11 km/h
Temperature: 16°F , -9°C
Wind Chill: 6°F , -14°C
Dew Point: 9°F , -13°C
Humidity: 73%
2022/01/24 14:00 CXVN 241400Z AUTO 15006KT M09/M13 RMK AO1 SOG 14 6013 SLP122 T10911132
 
CYTZ - Toronto Il Vor, Ontario, Canada
Distance from station: NW 49mi, 79km
Updated: Mon, 24-Jan-2022 9:00am EST
Light snow, Overcast
Light snow, Overcast
 Wind from SSW
Wind: SSW 9 mph , 15 km/h
Temperature: 19°F , -7°C
Wind Chill: 8°F , -13°C
Dew Point: 9°F , -13°C
Humidity: 63%
Barometer: 29.86 inHg , 1011.2 hPa
Summary: Light Snow
Clouds: Overcast
Visibility: 9 miles , 14 km
Cloud details: Overcast 3400 ft
2022/01/24 14:00 CYTZ 241400Z AUTO 21008KT 170V230 9SM -SN OVC034 M07/M13 A2986 RMK SLP118
KROC - Rochester, New York, USA
Distance from station: E 51mi, 81km
Updated: Mon, 24-Jan-2022 8:54am EST
Mostly cloudy
Mostly cloudy
 Wind from SW
Wind: SW 8 mph , 13 km/h
Temperature: 5°F , -15°C
Wind Chill: -8°F , -22°C
Dew Point: 1°F , -17°C
Humidity: 85%
Barometer: 29.93 inHg , 1013.5 hPa
Clouds: Mostly cloudy
Visibility: 10 miles , 16 km
Cloud details: Few Clouds 5000 ft
Mostly cloudy 11000 ft
Mostly cloudy 23000 ft
2022/01/24 13:54 KROC 241354Z 23007KT 10SM FEW050 BKN110 BKN230 M15/M17 A2993 RMK AO2 SLP151 T11501172
 
CXTO - Toronto City, Ontario, Canada
Distance from station: NW 51mi, 82km
Updated: Mon, 24-Jan-2022 9:00am EST

 
Temperature: 19°F , -7°C
Dew Point: 9°F , -13°C
Humidity: 63%
2022/01/24 14:00 CXTO 241400Z AUTO M07/M13 RMK AO1 SOG 20 6013 SLP112 T10691127
CYOO - Oshawa, Ontario, Canada
Distance from station: NNW 54mi, 87km
Updated: Mon, 24-Jan-2022 9:23am EST
Light snow, Overcast
Light snow, Overcast
 Wind from E
Wind: E 7 mph , 11 km/h
Temperature: 10°F , -12°C
Wind Chill: -1°F , -18°C
Dew Point: 7°F , -14°C
Humidity: 85%
Barometer: 29.84 inHg , 1010.5 hPa
Summary: Light Snow
Clouds: Overcast
Visibility: 5 miles , 8 km
Cloud details: Few Clouds 2800 ft
Mostly cloudy 3500 ft
Mostly cloudy 4900 ft
Overcast 11000 ft
2022/01/24 14:23 CYOO 241423Z AUTO 09006KT 5SM -SN FEW028 BKN035 BKN049 OVC110 M12/M14 A2984 RMK SLP117
 
KDKK - Dunkirk, New York, USA
Distance from station: SW 54mi, 87km
Updated: Mon, 24-Jan-2022 8:53am EST
Mostly cloudy
Mostly cloudy
 Wind from SSE
Wind: SSE 8 mph , 13 km/h
Temperature: 12°F , -11°C
Wind Chill: 0°F , -18°C
Dew Point: 7°F , -14°C
Humidity: 79%
Barometer: 29.85 inHg , 1010.8 hPa
Clouds: Mostly cloudy
Visibility: 10 miles , 16 km
Cloud details: Few Clouds 3700 ft
Mostly cloudy 10000 ft
2022/01/24 13:53 KDKK 241353Z AUTO 15007KT 10SM FEW037 BKN100 M11/M14 A2985 RMK AO2 SLP120 T11061144
CWWB - Burlington Piers, Ontario, Canada
Distance from station: W 56mi, 91km
Updated: Mon, 24-Jan-2022 9:00am EST

 Wind from SSE
Wind: SSE 12 mph , 19 km/h
Temperature: 18°F , -8°C
Wind Chill: 5°F , -15°C
Dew Point: 5°F , -15°C
Humidity: 58%
2022/01/24 14:00 CWWB 241400Z AUTO 15010KT M08/M15 RMK AO1 SLP118 T10821148 58015
 
CYYZ - Toronto/Pearson, Ontario, Canada
Distance from station: NW 59mi, 95km
Updated: Mon, 24-Jan-2022 9:00am EST
Overcast
Overcast
 Wind from W
Wind: W 6 mph , 9 km/h
Temperature: 12°F , -11°C
Wind Chill: 2°F , -17°C
Dew Point: 3°F , -16°C
Humidity: 67%
Barometer: 29.83 inHg , 1010.2 hPa
Clouds: Overcast
Visibility: 15 miles , 24 km
Cloud details: Overcast 3400 ft
2022/01/24 14:00 CYYZ 241400Z 26005KT 15SM OVC034 M11/M16 A2983 RMK SC8 SLP117
CWNC - Cobourg (mars), Ontario, Canada
Distance from station: NNE 61mi, 98km
Updated: Mon, 24-Jan-2022 9:00am EST

 Wind from NE
Wind: NE 5 mph , 7 km/h
Temperature: 10°F , -12°C
Wind Chill: 1°F , -17°C
Dew Point: 7°F , -14°C
Humidity: 85%
2022/01/24 14:00 CWNC 241400Z AUTO 05004KT M12/M14 RMK AO1 3PAST HR SOG 11 6008 SLP127 P0001 T11211139 50003
 
CXHM - Hamilton Rbg Cs, Ontario, Canada
Distance from station: W 62mi, 100km
Updated: Mon, 24-Jan-2022 9:00am EST

 Wind from NE
Wind: NE 1 mph , 2 km/h
Temperature: 14°F , -10°C
Dew Point: 5°F , -15°C
Humidity: 67%
2022/01/24 14:00 CXHM 241400Z AUTO 04001KT M10/M15 RMK AO1 SLP121 T11021154 58013
CYHM - Hamilton Airport, Ontario, Canada
Distance from station: W 63mi, 101km
Updated: Mon, 24-Jan-2022 9:12am EST
Light snow, Overcast
Light snow, Overcast
 Wind from ESE
Wind: ESE 9 mph , 15 km/h
Temperature: 12°F , -11°C
Wind Chill: -0°F , -18°C
Dew Point: 5°F , -15°C
Humidity: 73%
Barometer: 29.80 inHg , 1009.1 hPa
Summary: Light Snow
Clouds: Overcast
Visibility: 1 mile , 2 km
Cloud details: Mostly cloudy 2200 ft
Overcast 3000 ft
2022/01/24 14:12 CYHM 241412Z 12008KT 1SM R12/P6000FT/N -SN BKN022 OVC030 M11/M15 A2980 RMK SN2SC3SC3 SLP110
 
KDSV - Dansville, New York, USA
Distance from station: SE 63mi, 102km
Updated: Mon, 24-Jan-2022 8:54am EST
Clear
Clear
 Wind from SE
Wind: SE 9 mph , 15 km/h
Temperature: 3°F , -16°C
Wind Chill: -11°F , -24°C
Dew Point: -4°F , -20°C
Humidity: 72%
Barometer: 29.91 inHg , 1012.9 hPa
Clouds: Clear
Visibility: 10 miles , 16 km
2022/01/24 13:54 KDSV 241354Z AUTO 13008KT 10SM CLR M16/M20 A2991 RMK AO2 SLP153 T11611200 $
KOLE - Olean, New York, USA
Distance from station: SSE 65mi, 105km
Updated: Mon, 24-Jan-2022 9:15am EST
Light snow, Overcast
Light snow, Overcast
 Wind from S
Wind: S 3 mph , 6 km/h
Temperature: 5°F , -15°C
Dew Point: 3°F , -16°C
Humidity: 92%
Barometer: 29.75 inHg , 1007.5 hPa
Summary: Light Snow
Clouds: Overcast
Visibility: 5 miles , 8 km
Cloud details: Partly cloudy 600 ft
Partly cloudy 1100 ft
Overcast 1800 ft
2022/01/24 14:15 KOLE 241415Z AUTO 18003KT 5SM -SN SCT006 SCT011 OVC018 M15/M16 A2975 RMK AO2